sensor_id;sensor_type;location;lat;lon;timestamp;P1;durP1;ratioP1;P2;durP2;ratioP2
81627;SDS011;71036;51.102;6.514;2023-07-20T00:02:12;5.20;;;3.20;;
81627;SDS011;71036;51.102;6.514;2023-07-20T00:04:37;5.97;;;2.70;;
81627;SDS011;71036;51.102;6.514;2023-07-20T00:07:03;4.60;;;2.87;;
81627;SDS011;71036;51.102;6.514;2023-07-20T00:09:28;5.00;;;3.10;;
81627;SDS011;71036;51.102;6.514;2023-07-20T00:11:54;8.70;;;3.27;;
81627;SDS011;71036;51.102;6.514;2023-07-20T00:14:19;6.83;;;3.80;;
81627;SDS011;71036;51.102;6.514;2023-07-20T00:16:45;7.60;;;3.93;;
81627;SDS011;71036;51.102;6.514;2023-07-20T00:19:11;7.60;;;3.20;;
81627;SDS011;71036;51.102;6.514;2023-07-20T00:21:37;11.20;;;4.17;;
81627;SDS011;71036;51.102;6.514;2023-07-20T00:24:05;10.83;;;3.13;;
81627;SDS011;71036;51.102;6.514;2023-07-20T00:26:30;15.83;;;3.27;;
81627;SDS011;71036;51.102;6.514;2023-07-20T00:28:56;14.73;;;4.13;;
81627;SDS011;71036;51.102;6.514;2023-07-20T00:31:21;6.33;;;3.47;;
81627;SDS011;71036;51.102;6.514;2023-07-20T00:33:46;9.63;;;3.60;;
81627;SDS011;71036;51.102;6.514;2023-07-20T00:36:12;6.90;;;3.80;;
81627;SDS011;71036;51.102;6.514;2023-07-20T00:38:37;8.13;;;3.73;;
81627;SDS011;71036;51.102;6.514;2023-07-20T00:41:02;13.73;;;4.67;;
81627;SDS011;71036;51.102;6.514;2023-07-20T00:43:27;6.30;;;3.53;;
81627;SDS011;71036;51.102;6.514;2023-07-20T00:45:53;15.17;;;4.60;;
81627;SDS011;71036;51.102;6.514;2023-07-20T00:48:18;7.20;;;4.63;;
81627;SDS011;71036;51.102;6.514;2023-07-20T00:50:44;12.20;;;3.50;;
81627;SDS011;71036;51.102;6.514;2023-07-20T00:53:11;11.97;;;4.00;;
81627;SDS011;71036;51.102;6.514;2023-07-20T00:55:36;12.17;;;4.10;;
81627;SDS011;71036;51.102;6.514;2023-07-20T00:58:02;11.40;;;3.80;;
81627;SDS011;71036;51.102;6.514;2023-07-20T01:00:27;6.57;;;3.77;;
81627;SDS011;71036;51.102;6.514;2023-07-20T01:02:53;15.30;;;4.27;;
81627;SDS011;71036;51.102;6.514;2023-07-20T01:05:18;15.87;;;4.80;;
81627;SDS011;71036;51.102;6.514;2023-07-20T01:08:07;25.07;;;6.77;;
81627;SDS011;71036;51.102;6.514;2023-07-20T01:10:57;15.70;;;4.53;;
81627;SDS011;71036;51.102;6.514;2023-07-20T01:13:28;11.73;;;4.70;;
81627;SDS011;71036;51.102;6.514;2023-07-20T01:15:57;19.90;;;5.30;;
81627;SDS011;71036;51.102;6.514;2023-07-20T01:18:26;13.97;;;4.10;;
81627;SDS011;71036;51.102;6.514;2023-07-20T01:20:52;11.47;;;5.13;;
81627;SDS011;71036;51.102;6.514;2023-07-20T01:26:24;16.97;;;4.40;;
81627;SDS011;71036;51.102;6.514;2023-07-20T01:29:22;7.50;;;4.50;;
81627;SDS011;71036;51.102;6.514;2023-07-20T01:32:04;10.13;;;4.97;;
81627;SDS011;71036;51.102;6.514;2023-07-20T01:34:33;6.87;;;4.23;;
81627;SDS011;71036;51.102;6.514;2023-07-20T01:37:01;8.37;;;4.50;;
81627;SDS011;71036;51.102;6.514;2023-07-20T01:39:28;17.80;;;5.70;;
81627;SDS011;71036;51.102;6.514;2023-07-20T01:41:53;11.93;;;6.60;;
81627;SDS011;71036;51.102;6.514;2023-07-20T01:44:19;9.50;;;4.90;;
81627;SDS011;71036;51.102;6.514;2023-07-20T01:46:45;16.20;;;6.10;;
81627;SDS011;71036;51.102;6.514;2023-07-20T01:49:10;11.43;;;6.00;;
81627;SDS011;71036;51.102;6.514;2023-07-20T01:51:35;10.23;;;6.20;;
81627;SDS011;71036;51.102;6.514;2023-07-20T01:54:01;12.83;;;6.10;;
81627;SDS011;71036;51.102;6.514;2023-07-20T01:56:26;19.77;;;6.00;;
81627;SDS011;71036;51.102;6.514;2023-07-20T01:58:51;12.17;;;6.63;;
81627;SDS011;71036;51.102;6.514;2023-07-20T02:01:16;8.90;;;5.60;;
81627;SDS011;71036;51.102;6.514;2023-07-20T02:03:42;17.07;;;7.80;;
81627;SDS011;71036;51.102;6.514;2023-07-20T02:06:07;16.03;;;6.67;;
81627;SDS011;71036;51.102;6.514;2023-07-20T02:08:33;18.10;;;7.07;;
81627;SDS011;71036;51.102;6.514;2023-07-20T02:10:58;32.93;;;6.93;;
81627;SDS011;71036;51.102;6.514;2023-07-20T02:13:23;27.50;;;7.87;;
81627;SDS011;71036;51.102;6.514;2023-07-20T02:15:48;20.20;;;7.27;;
81627;SDS011;71036;51.102;6.514;2023-07-20T02:18:14;12.23;;;6.70;;
81627;SDS011;71036;51.102;6.514;2023-07-20T02:20:40;14.20;;;6.60;;
81627;SDS011;71036;51.102;6.514;2023-07-20T02:23:06;15.43;;;7.10;;
81627;SDS011;71036;51.102;6.514;2023-07-20T02:25:31;16.20;;;6.83;;
81627;SDS011;71036;51.102;6.514;2023-07-20T02:27:57;9.77;;;6.30;;
81627;SDS011;71036;51.102;6.514;2023-07-20T02:30:23;15.40;;;6.50;;
81627;SDS011;71036;51.102;6.514;2023-07-20T02:32:48;15.93;;;6.37;;
81627;SDS011;71036;51.102;6.514;2023-07-20T02:35:16;12.07;;;6.87;;
81627;SDS011;71036;51.102;6.514;2023-07-20T02:37:42;11.87;;;6.30;;
81627;SDS011;71036;51.102;6.514;2023-07-20T02:40:07;12.70;;;6.80;;
81627;SDS011;71036;51.102;6.514;2023-07-20T02:42:33;15.77;;;7.33;;
81627;SDS011;71036;51.102;6.514;2023-07-20T02:44:59;11.03;;;5.80;;
81627;SDS011;71036;51.102;6.514;2023-07-20T02:47:24;13.07;;;6.33;;
81627;SDS011;71036;51.102;6.514;2023-07-20T02:49:50;17.87;;;6.37;;
81627;SDS011;71036;51.102;6.514;2023-07-20T02:52:15;13.87;;;6.27;;
81627;SDS011;71036;51.102;6.514;2023-07-20T02:54:40;11.23;;;7.23;;
81627;SDS011;71036;51.102;6.514;2023-07-20T02:57:06;14.20;;;6.50;;
81627;SDS011;71036;51.102;6.514;2023-07-20T02:59:31;12.20;;;6.77;;
81627;SDS011;71036;51.102;6.514;2023-07-20T03:01:56;18.37;;;6.40;;
81627;SDS011;71036;51.102;6.514;2023-07-20T03:04:22;13.27;;;6.80;;
81627;SDS011;71036;51.102;6.514;2023-07-20T03:06:49;15.20;;;6.10;;
81627;SDS011;71036;51.102;6.514;2023-07-20T03:09:14;12.63;;;5.80;;
81627;SDS011;71036;51.102;6.514;2023-07-20T03:11:40;16.60;;;6.30;;
81627;SDS011;71036;51.102;6.514;2023-07-20T03:14:05;12.87;;;6.10;;
81627;SDS011;71036;51.102;6.514;2023-07-20T03:16:31;14.27;;;6.17;;
81627;SDS011;71036;51.102;6.514;2023-07-20T03:18:58;14.33;;;5.90;;
81627;SDS011;71036;51.102;6.514;2023-07-20T03:21:24;13.60;;;6.17;;
81627;SDS011;71036;51.102;6.514;2023-07-20T03:23:49;9.70;;;5.93;;
81627;SDS011;71036;51.102;6.514;2023-07-20T03:26:14;13.17;;;5.87;;
81627;SDS011;71036;51.102;6.514;2023-07-20T03:28:40;16.00;;;6.40;;
81627;SDS011;71036;51.102;6.514;2023-07-20T03:31:05;10.40;;;6.03;;
81627;SDS011;71036;51.102;6.514;2023-07-20T03:33:31;15.13;;;5.73;;
81627;SDS011;71036;51.102;6.514;2023-07-20T03:35:57;10.57;;;6.03;;
81627;SDS011;71036;51.102;6.514;2023-07-20T03:38:23;10.50;;;5.73;;
81627;SDS011;71036;51.102;6.514;2023-07-20T03:40:55;16.20;;;6.13;;
81627;SDS011;71036;51.102;6.514;2023-07-20T03:43:22;13.83;;;6.10;;
81627;SDS011;71036;51.102;6.514;2023-07-20T03:45:48;14.00;;;7.23;;
81627;SDS011;71036;51.102;6.514;2023-07-20T03:48:21;13.97;;;6.93;;
81627;SDS011;71036;51.102;6.514;2023-07-20T03:50:48;14.17;;;5.87;;
81627;SDS011;71036;51.102;6.514;2023-07-20T03:53:15;9.70;;;6.03;;
81627;SDS011;71036;51.102;6.514;2023-07-20T03:55:41;15.60;;;6.97;;
81627;SDS011;71036;51.102;6.514;2023-07-20T03:58:09;16.57;;;6.90;;
81627;SDS011;71036;51.102;6.514;2023-07-20T04:00:34;14.87;;;6.10;;
81627;SDS011;71036;51.102;6.514;2023-07-20T04:02:59;11.23;;;5.53;;
81627;SDS011;71036;51.102;6.514;2023-07-20T04:05:25;19.47;;;5.50;;
81627;SDS011;71036;51.102;6.514;2023-07-20T04:07:51;16.40;;;5.80;;
81627;SDS011;71036;51.102;6.514;2023-07-20T04:10:16;13.47;;;6.57;;
81627;SDS011;71036;51.102;6.514;2023-07-20T04:12:43;24.13;;;7.00;;
81627;SDS011;71036;51.102;6.514;2023-07-20T04:15:09;16.40;;;6.07;;
81627;SDS011;71036;51.102;6.514;2023-07-20T04:17:35;11.73;;;5.90;;
81627;SDS011;71036;51.102;6.514;2023-07-20T04:20:00;13.70;;;6.63;;
81627;SDS011;71036;51.102;6.514;2023-07-20T04:22:26;20.43;;;6.30;;
81627;SDS011;71036;51.102;6.514;2023-07-20T04:24:52;14.00;;;6.27;;
81627;SDS011;71036;51.102;6.514;2023-07-20T04:27:17;13.33;;;5.90;;
81627;SDS011;71036;51.102;6.514;2023-07-20T04:29:43;18.87;;;6.73;;
81627;SDS011;71036;51.102;6.514;2023-07-20T04:32:08;21.53;;;6.23;;
81627;SDS011;71036;51.102;6.514;2023-07-20T04:34:33;20.20;;;6.53;;
81627;SDS011;71036;51.102;6.514;2023-07-20T04:37:02;15.50;;;6.73;;
81627;SDS011;71036;51.102;6.514;2023-07-20T04:39:27;13.77;;;6.20;;
81627;SDS011;71036;51.102;6.514;2023-07-20T04:41:53;28.47;;;7.93;;
81627;SDS011;71036;51.102;6.514;2023-07-20T04:44:19;31.53;;;7.90;;
81627;SDS011;71036;51.102;6.514;2023-07-20T04:46:44;26.60;;;7.70;;
81627;SDS011;71036;51.102;6.514;2023-07-20T04:49:09;14.10;;;7.73;;
81627;SDS011;71036;51.102;6.514;2023-07-20T04:51:34;16.97;;;8.00;;
81627;SDS011;71036;51.102;6.514;2023-07-20T04:54:00;21.27;;;8.13;;
81627;SDS011;71036;51.102;6.514;2023-07-20T04:56:25;16.57;;;8.17;;
81627;SDS011;71036;51.102;6.514;2023-07-20T04:58:50;16.20;;;8.30;;
81627;SDS011;71036;51.102;6.514;2023-07-20T05:01:16;16.70;;;9.50;;
81627;SDS011;71036;51.102;6.514;2023-07-20T05:03:41;19.93;;;7.60;;
81627;SDS011;71036;51.102;6.514;2023-07-20T05:06:06;15.87;;;8.27;;
81627;SDS011;71036;51.102;6.514;2023-07-20T05:08:32;24.37;;;9.40;;
81627;SDS011;71036;51.102;6.514;2023-07-20T05:10:57;21.67;;;9.43;;
81627;SDS011;71036;51.102;6.514;2023-07-20T05:13:22;15.73;;;8.07;;
81627;SDS011;71036;51.102;6.514;2023-07-20T05:15:50;17.27;;;9.43;;
81627;SDS011;71036;51.102;6.514;2023-07-20T05:18:16;21.47;;;9.43;;
81627;SDS011;71036;51.102;6.514;2023-07-20T05:20:46;20.73;;;10.07;;
81627;SDS011;71036;51.102;6.514;2023-07-20T05:23:16;25.43;;;10.13;;
81627;SDS011;71036;51.102;6.514;2023-07-20T05:25:43;20.63;;;10.13;;
81627;SDS011;71036;51.102;6.514;2023-07-20T05:28:08;22.80;;;10.97;;
81627;SDS011;71036;51.102;6.514;2023-07-20T05:30:33;21.00;;;9.70;;
81627;SDS011;71036;51.102;6.514;2023-07-20T05:32:59;19.60;;;9.70;;
81627;SDS011;71036;51.102;6.514;2023-07-20T05:35:25;22.97;;;10.60;;
81627;SDS011;71036;51.102;6.514;2023-07-20T05:37:51;20.50;;;10.70;;
81627;SDS011;71036;51.102;6.514;2023-07-20T05:40:16;25.00;;;10.93;;
81627;SDS011;71036;51.102;6.514;2023-07-20T05:42:46;25.53;;;11.93;;
81627;SDS011;71036;51.102;6.514;2023-07-20T05:45:12;23.37;;;11.17;;
81627;SDS011;71036;51.102;6.514;2023-07-20T05:47:38;24.33;;;10.67;;
81627;SDS011;71036;51.102;6.514;2023-07-20T05:50:04;22.97;;;11.20;;
81627;SDS011;71036;51.102;6.514;2023-07-20T05:52:29;31.20;;;11.20;;
81627;SDS011;71036;51.102;6.514;2023-07-20T05:54:55;23.40;;;12.00;;
81627;SDS011;71036;51.102;6.514;2023-07-20T05:57:20;26.23;;;13.73;;
81627;SDS011;71036;51.102;6.514;2023-07-20T05:59:45;22.97;;;13.77;;
81627;SDS011;71036;51.102;6.514;2023-07-20T06:02:11;29.13;;;13.40;;
81627;SDS011;71036;51.102;6.514;2023-07-20T06:04:37;30.57;;;15.07;;
81627;SDS011;71036;51.102;6.514;2023-07-20T06:07:03;28.83;;;14.73;;
81627;SDS011;71036;51.102;6.514;2023-07-20T06:09:29;23.90;;;13.10;;
81627;SDS011;71036;51.102;6.514;2023-07-20T06:11:55;28.97;;;15.40;;
81627;SDS011;71036;51.102;6.514;2023-07-20T06:14:21;26.57;;;15.17;;
81627;SDS011;71036;51.102;6.514;2023-07-20T06:16:46;26.13;;;13.30;;
81627;SDS011;71036;51.102;6.514;2023-07-20T06:19:11;36.73;;;16.70;;
81627;SDS011;71036;51.102;6.514;2023-07-20T06:21:37;26.07;;;13.53;;
81627;SDS011;71036;51.102;6.514;2023-07-20T06:24:02;25.30;;;15.43;;
81627;SDS011;71036;51.102;6.514;2023-07-20T06:26:28;39.57;;;14.10;;
81627;SDS011;71036;51.102;6.514;2023-07-20T06:28:54;25.17;;;12.60;;
81627;SDS011;71036;51.102;6.514;2023-07-20T06:31:20;27.80;;;12.80;;
81627;SDS011;71036;51.102;6.514;2023-07-20T06:33:45;23.80;;;11.60;;
81627;SDS011;71036;51.102;6.514;2023-07-20T06:36:10;18.30;;;10.40;;
81627;SDS011;71036;51.102;6.514;2023-07-20T06:38:36;20.83;;;11.83;;
81627;SDS011;71036;51.102;6.514;2023-07-20T06:41:01;17.93;;;10.03;;
81627;SDS011;71036;51.102;6.514;2023-07-20T06:43:26;19.03;;;12.00;;
81627;SDS011;71036;51.102;6.514;2023-07-20T06:45:52;16.27;;;9.23;;
81627;SDS011;71036;51.102;6.514;2023-07-20T06:48:21;15.70;;;10.07;;
81627;SDS011;71036;51.102;6.514;2023-07-20T06:50:46;14.40;;;9.03;;
81627;SDS011;71036;51.102;6.514;2023-07-20T06:53:12;20.63;;;10.03;;
81627;SDS011;71036;51.102;6.514;2023-07-20T06:55:37;21.87;;;9.40;;
81627;SDS011;71036;51.102;6.514;2023-07-20T06:58:03;17.10;;;8.20;;
81627;SDS011;71036;51.102;6.514;2023-07-20T07:00:28;12.83;;;7.57;;
81627;SDS011;71036;51.102;6.514;2023-07-20T07:02:53;17.63;;;8.43;;
81627;SDS011;71036;51.102;6.514;2023-07-20T07:05:19;14.50;;;8.30;;
81627;SDS011;71036;51.102;6.514;2023-07-20T07:07:44;16.27;;;8.33;;
81627;SDS011;71036;51.102;6.514;2023-07-20T07:10:09;20.37;;;9.83;;
81627;SDS011;71036;51.102;6.514;2023-07-20T07:12:34;16.87;;;8.60;;
81627;SDS011;71036;51.102;6.514;2023-07-20T07:15:00;15.73;;;8.13;;
81627;SDS011;71036;51.102;6.514;2023-07-20T07:17:27;12.40;;;8.40;;
81627;SDS011;71036;51.102;6.514;2023-07-20T07:19:52;14.70;;;8.50;;
81627;SDS011;71036;51.102;6.514;2023-07-20T07:22:19;15.40;;;7.60;;
81627;SDS011;71036;51.102;6.514;2023-07-20T07:24:46;11.47;;;7.20;;
81627;SDS011;71036;51.102;6.514;2023-07-20T07:27:11;12.43;;;6.70;;
81627;SDS011;71036;51.102;6.514;2023-07-20T07:29:37;15.23;;;6.50;;
81627;SDS011;71036;51.102;6.514;2023-07-20T07:32:02;10.40;;;6.47;;
81627;SDS011;71036;51.102;6.514;2023-07-20T07:34:28;9.67;;;6.17;;
81627;SDS011;71036;51.102;6.514;2023-07-20T07:36:53;10.60;;;4.80;;
81627;SDS011;71036;51.102;6.514;2023-07-20T07:39:18;7.00;;;4.63;;
81627;SDS011;71036;51.102;6.514;2023-07-20T07:41:44;9.80;;;4.67;;
81627;SDS011;71036;51.102;6.514;2023-07-20T07:44:09;6.50;;;3.63;;
81627;SDS011;71036;51.102;6.514;2023-07-20T07:46:34;8.23;;;4.63;;
81627;SDS011;71036;51.102;6.514;2023-07-20T07:48:59;6.97;;;4.33;;
81627;SDS011;71036;51.102;6.514;2023-07-20T07:51:25;6.70;;;4.10;;
81627;SDS011;71036;51.102;6.514;2023-07-20T07:53:52;8.10;;;4.60;;
81627;SDS011;71036;51.102;6.514;2023-07-20T07:56:17;10.20;;;4.47;;
81627;SDS011;71036;51.102;6.514;2023-07-20T07:58:42;22.17;;;4.27;;
81627;SDS011;71036;51.102;6.514;2023-07-20T08:01:07;5.90;;;3.20;;
81627;SDS011;71036;51.102;6.514;2023-07-20T08:03:33;4.60;;;3.60;;
81627;SDS011;71036;51.102;6.514;2023-07-20T08:05:58;6.50;;;3.60;;
81627;SDS011;71036;51.102;6.514;2023-07-20T08:08:25;4.70;;;3.27;;
81627;SDS011;71036;51.102;6.514;2023-07-20T08:10:52;6.20;;;3.67;;
81627;SDS011;71036;51.102;6.514;2023-07-20T08:13:19;5.17;;;3.07;;
81627;SDS011;71036;51.102;6.514;2023-07-20T08:15:45;5.30;;;3.47;;
81627;SDS011;71036;51.102;6.514;2023-07-20T08:18:13;5.80;;;4.37;;
81627;SDS011;71036;51.102;6.514;2023-07-20T08:20:38;4.47;;;2.90;;
81627;SDS011;71036;51.102;6.514;2023-07-20T08:23:04;5.07;;;3.57;;
81627;SDS011;71036;51.102;6.514;2023-07-20T08:25:29;7.63;;;3.97;;
81627;SDS011;71036;51.102;6.514;2023-07-20T08:27:54;5.93;;;2.90;;
81627;SDS011;71036;51.102;6.514;2023-07-20T08:30:21;4.33;;;2.63;;
81627;SDS011;71036;51.102;6.514;2023-07-20T08:32:48;6.33;;;2.27;;
81627;SDS011;71036;51.102;6.514;2023-07-20T08:35:13;4.93;;;2.43;;
81627;SDS011;71036;51.102;6.514;2023-07-20T08:37:40;2.80;;;2.07;;
81627;SDS011;71036;51.102;6.514;2023-07-20T08:40:05;2.47;;;1.67;;
81627;SDS011;71036;51.102;6.514;2023-07-20T08:42:33;1.30;;;1.20;;
81627;SDS011;71036;51.102;6.514;2023-07-20T08:44:59;2.03;;;1.20;;
81627;SDS011;71036;51.102;6.514;2023-07-20T08:47:25;1.90;;;1.43;;
81627;SDS011;71036;51.102;6.514;2023-07-20T08:49:51;3.07;;;1.47;;
81627;SDS011;71036;51.102;6.514;2023-07-20T08:52:18;2.70;;;1.50;;
81627;SDS011;71036;51.102;6.514;2023-07-20T08:54:43;1.40;;;1.30;;
81627;SDS011;71036;51.102;6.514;2023-07-20T08:57:09;1.60;;;1.50;;
81627;SDS011;71036;51.102;6.514;2023-07-20T08:59:39;4.10;;;1.37;;
81627;SDS011;71036;51.102;6.514;2023-07-20T09:02:04;1.10;;;0.90;;
81627;SDS011;71036;51.102;6.514;2023-07-20T09:04:30;2.50;;;1.10;;
81627;SDS011;71036;51.102;6.514;2023-07-20T09:06:55;3.40;;;1.30;;
81627;SDS011;71036;51.102;6.514;2023-07-20T09:09:22;2.23;;;0.90;;
81627;SDS011;71036;51.102;6.514;2023-07-20T09:11:48;1.70;;;0.73;;
81627;SDS011;71036;51.102;6.514;2023-07-20T09:14:14;2.50;;;0.77;;
81627;SDS011;71036;51.102;6.514;2023-07-20T09:16:52;5.77;;;1.20;;
81627;SDS011;71036;51.102;6.514;2023-07-20T09:19:19;2.20;;;1.20;;
81627;SDS011;71036;51.102;6.514;2023-07-20T09:21:49;1.17;;;1.07;;
81627;SDS011;71036;51.102;6.514;2023-07-20T09:24:16;1.30;;;1.20;;
81627;SDS011;71036;51.102;6.514;2023-07-20T09:26:44;1.10;;;1.00;;
81627;SDS011;71036;51.102;6.514;2023-07-20T09:29:13;1.00;;;0.90;;
81627;SDS011;71036;51.102;6.514;2023-07-20T09:31:38;2.43;;;1.00;;
81627;SDS011;71036;51.102;6.514;2023-07-20T09:34:06;3.40;;;1.70;;
81627;SDS011;71036;51.102;6.514;2023-07-20T09:36:35;3.93;;;1.57;;
81627;SDS011;71036;51.102;6.514;2023-07-20T09:39:02;2.00;;;0.80;;
81627;SDS011;71036;51.102;6.514;2023-07-20T09:41:28;1.43;;;0.90;;
81627;SDS011;71036;51.102;6.514;2023-07-20T09:43:54;2.03;;;1.10;;
81627;SDS011;71036;51.102;6.514;2023-07-20T09:46:20;1.30;;;1.03;;
81627;SDS011;71036;51.102;6.514;2023-07-20T09:48:52;1.90;;;1.00;;
81627;SDS011;71036;51.102;6.514;2023-07-20T09:51:19;2.67;;;1.00;;
81627;SDS011;71036;51.102;6.514;2023-07-20T09:53:49;1.70;;;0.90;;
81627;SDS011;71036;51.102;6.514;2023-07-20T09:56:17;1.10;;;0.97;;
81627;SDS011;71036;51.102;6.514;2023-07-20T09:58:46;3.00;;;0.90;;
81627;SDS011;71036;51.102;6.514;2023-07-20T10:01:13;3.07;;;0.70;;
81627;SDS011;71036;51.102;6.514;2023-07-20T10:03:45;1.10;;;0.63;;
81627;SDS011;71036;51.102;6.514;2023-07-20T10:06:12;1.47;;;0.80;;
81627;SDS011;71036;51.102;6.514;2023-07-20T10:08:43;2.40;;;1.10;;
81627;SDS011;71036;51.102;6.514;2023-07-20T10:11:12;1.30;;;0.60;;
81627;SDS011;71036;51.102;6.514;2023-07-20T10:13:40;1.40;;;0.70;;
81627;SDS011;71036;51.102;6.514;2023-07-20T10:16:10;1.50;;;0.83;;
81627;SDS011;71036;51.102;6.514;2023-07-20T10:21:37;1.10;;;0.60;;
81627;SDS011;71036;51.102;6.514;2023-07-20T10:24:07;2.00;;;0.70;;
81627;SDS011;71036;51.102;6.514;2023-07-20T10:26:33;0.97;;;0.60;;
81627;SDS011;71036;51.102;6.514;2023-07-20T10:28:59;1.57;;;0.90;;
81627;SDS011;71036;51.102;6.514;2023-07-20T10:31:24;1.50;;;0.60;;
81627;SDS011;71036;51.102;6.514;2023-07-20T10:33:54;1.70;;;0.90;;
81627;SDS011;71036;51.102;6.514;2023-07-20T10:36:24;1.20;;;0.70;;
81627;SDS011;71036;51.102;6.514;2023-07-20T10:38:53;1.20;;;0.70;;
81627;SDS011;71036;51.102;6.514;2023-07-20T10:43:46;1.10;;;0.73;;
81627;SDS011;71036;51.102;6.514;2023-07-20T10:46:14;1.77;;;0.80;;
81627;SDS011;71036;51.102;6.514;2023-07-20T10:49:01;2.40;;;0.90;;
81627;SDS011;71036;51.102;6.514;2023-07-20T10:51:29;1.83;;;1.30;;
81627;SDS011;71036;51.102;6.514;2023-07-20T10:53:58;3.30;;;1.40;;
81627;SDS011;71036;51.102;6.514;2023-07-20T10:56:25;1.43;;;0.70;;
81627;SDS011;71036;51.102;6.514;2023-07-20T10:58:57;0.90;;;0.63;;
81627;SDS011;71036;51.102;6.514;2023-07-20T11:01:28;4.33;;;0.80;;
81627;SDS011;71036;51.102;6.514;2023-07-20T11:03:58;3.00;;;0.83;;
81627;SDS011;71036;51.102;6.514;2023-07-20T11:11:30;2.43;;;0.80;;
81627;SDS011;71036;51.102;6.514;2023-07-20T11:13:57;0.87;;;0.80;;
81627;SDS011;71036;51.102;6.514;2023-07-20T11:16:46;1.57;;;1.00;;
81627;SDS011;71036;51.102;6.514;2023-07-20T11:19:33;1.00;;;0.70;;
81627;SDS011;71036;51.102;6.514;2023-07-20T11:21:58;1.63;;;0.70;;
81627;SDS011;71036;51.102;6.514;2023-07-20T11:24:23;1.73;;;0.67;;
81627;SDS011;71036;51.102;6.514;2023-07-20T11:26:53;1.70;;;0.90;;
81627;SDS011;71036;51.102;6.514;2023-07-20T11:29:20;1.27;;;0.57;;
81627;SDS011;71036;51.102;6.514;2023-07-20T11:31:46;1.00;;;0.53;;
81627;SDS011;71036;51.102;6.514;2023-07-20T11:34:13;0.90;;;0.50;;
81627;SDS011;71036;51.102;6.514;2023-07-20T11:36:43;0.87;;;0.73;;
81627;SDS011;71036;51.102;6.514;2023-07-20T11:39:11;0.80;;;0.50;;
81627;SDS011;71036;51.102;6.514;2023-07-20T11:41:38;1.10;;;0.70;;
81627;SDS011;71036;51.102;6.514;2023-07-20T11:44:08;1.63;;;0.80;;
81627;SDS011;71036;51.102;6.514;2023-07-20T11:46:38;1.07;;;0.80;;
81627;SDS011;71036;51.102;6.514;2023-07-20T11:49:04;1.30;;;0.70;;
81627;SDS011;71036;51.102;6.514;2023-07-20T11:51:30;1.00;;;0.70;;
81627;SDS011;71036;51.102;6.514;2023-07-20T11:53:57;0.97;;;0.50;;
81627;SDS011;71036;51.102;6.514;2023-07-20T11:56:23;3.87;;;0.87;;
81627;SDS011;71036;51.102;6.514;2023-07-20T11:58:49;0.90;;;0.70;;
81627;SDS011;71036;51.102;6.514;2023-07-20T12:01:15;1.13;;;0.70;;
81627;SDS011;71036;51.102;6.514;2023-07-20T12:03:41;0.80;;;0.60;;
81627;SDS011;71036;51.102;6.514;2023-07-20T12:06:08;0.90;;;0.50;;
81627;SDS011;71036;51.102;6.514;2023-07-20T12:08:34;3.37;;;0.70;;
81627;SDS011;71036;51.102;6.514;2023-07-20T12:11:00;2.33;;;1.10;;
81627;SDS011;71036;51.102;6.514;2023-07-20T12:16:08;1.23;;;0.87;;
81627;SDS011;71036;51.102;6.514;2023-07-20T12:18:35;0.90;;;0.70;;
81627;SDS011;71036;51.102;6.514;2023-07-20T12:21:01;0.93;;;0.63;;
81627;SDS011;71036;51.102;6.514;2023-07-20T12:23:27;1.10;;;0.70;;
81627;SDS011;71036;51.102;6.514;2023-07-20T12:25:59;5.93;;;0.60;;
81627;SDS011;71036;51.102;6.514;2023-07-20T12:28:24;0.80;;;0.77;;
81627;SDS011;71036;51.102;6.514;2023-07-20T12:30:51;0.90;;;0.70;;
81627;SDS011;71036;51.102;6.514;2023-07-20T12:33:21;1.33;;;0.70;;
81627;SDS011;71036;51.102;6.514;2023-07-20T12:35:47;2.93;;;0.63;;
81627;SDS011;71036;51.102;6.514;2023-07-20T12:38:13;1.30;;;0.80;;
81627;SDS011;71036;51.102;6.514;2023-07-20T12:40:38;4.40;;;0.60;;
81627;SDS011;71036;51.102;6.514;2023-07-20T12:43:03;0.90;;;0.57;;
81627;SDS011;71036;51.102;6.514;2023-07-20T12:45:29;1.73;;;0.67;;
81627;SDS011;71036;51.102;6.514;2023-07-20T12:47:54;7.40;;;1.00;;
81627;SDS011;71036;51.102;6.514;2023-07-20T12:50:20;3.27;;;0.80;;
81627;SDS011;71036;51.102;6.514;2023-07-20T12:52:45;2.13;;;0.93;;
81627;SDS011;71036;51.102;6.514;2023-07-20T12:55:10;1.00;;;0.60;;
81627;SDS011;71036;51.102;6.514;2023-07-20T12:57:36;2.40;;;0.80;;
81627;SDS011;71036;51.102;6.514;2023-07-20T13:00:03;0.90;;;0.60;;
81627;SDS011;71036;51.102;6.514;2023-07-20T13:02:31;0.90;;;0.60;;
81627;SDS011;71036;51.102;6.514;2023-07-20T13:04:57;1.37;;;1.10;;
81627;SDS011;71036;51.102;6.514;2023-07-20T13:07:29;1.10;;;0.70;;
81627;SDS011;71036;51.102;6.514;2023-07-20T13:09:57;2.33;;;0.60;;
81627;SDS011;71036;51.102;6.514;2023-07-20T13:12:24;1.53;;;0.63;;
81627;SDS011;71036;51.102;6.514;2023-07-20T13:14:49;2.87;;;0.80;;
81627;SDS011;71036;51.102;6.514;2023-07-20T13:17:14;1.20;;;0.70;;
81627;SDS011;71036;51.102;6.514;2023-07-20T13:19:40;1.10;;;0.80;;
81627;SDS011;71036;51.102;6.514;2023-07-20T13:22:05;3.70;;;1.10;;
81627;SDS011;71036;51.102;6.514;2023-07-20T13:24:30;2.37;;;0.73;;
81627;SDS011;71036;51.102;6.514;2023-07-20T13:26:56;1.10;;;0.80;;
81627;SDS011;71036;51.102;6.514;2023-07-20T13:29:21;1.63;;;0.70;;
81627;SDS011;71036;51.102;6.514;2023-07-20T13:31:46;1.93;;;0.83;;
81627;SDS011;71036;51.102;6.514;2023-07-20T13:34:11;2.30;;;0.93;;
81627;SDS011;71036;51.102;6.514;2023-07-20T13:36:37;1.97;;;0.80;;
81627;SDS011;71036;51.102;6.514;2023-07-20T13:39:02;3.37;;;0.80;;
81627;SDS011;71036;51.102;6.514;2023-07-20T13:41:29;1.67;;;0.73;;
81627;SDS011;71036;51.102;6.514;2023-07-20T13:43:57;1.57;;;0.70;;
81627;SDS011;71036;51.102;6.514;2023-07-20T13:46:22;1.20;;;0.90;;
81627;SDS011;71036;51.102;6.514;2023-07-20T13:48:47;2.93;;;1.23;;
81627;SDS011;71036;51.102;6.514;2023-07-20T13:51:13;1.27;;;0.80;;
81627;SDS011;71036;51.102;6.514;2023-07-20T13:53:39;0.80;;;0.43;;
81627;SDS011;71036;51.102;6.514;2023-07-20T13:56:04;0.80;;;0.53;;
81627;SDS011;71036;51.102;6.514;2023-07-20T13:58:29;2.00;;;0.83;;
81627;SDS011;71036;51.102;6.514;2023-07-20T14:00:55;1.37;;;0.70;;
81627;SDS011;71036;51.102;6.514;2023-07-20T14:03:20;1.30;;;0.63;;
81627;SDS011;71036;51.102;6.514;2023-07-20T14:05:45;2.60;;;0.80;;
81627;SDS011;71036;51.102;6.514;2023-07-20T14:08:11;2.23;;;0.70;;
81627;SDS011;71036;51.102;6.514;2023-07-20T14:10:36;1.33;;;0.90;;
81627;SDS011;71036;51.102;6.514;2023-07-20T14:13:01;1.83;;;0.60;;
81627;SDS011;71036;51.102;6.514;2023-07-20T14:15:27;2.60;;;0.50;;
81627;SDS011;71036;51.102;6.514;2023-07-20T14:17:52;3.30;;;0.60;;
81627;SDS011;71036;51.102;6.514;2023-07-20T14:20:17;6.10;;;0.70;;
81627;SDS011;71036;51.102;6.514;2023-07-20T14:22:42;0.80;;;0.50;;
81627;SDS011;71036;51.102;6.514;2023-07-20T14:25:09;2.20;;;0.90;;
81627;SDS011;71036;51.102;6.514;2023-07-20T14:27:34;0.90;;;0.63;;
81627;SDS011;71036;51.102;6.514;2023-07-20T14:30:00;1.20;;;0.80;;
81627;SDS011;71036;51.102;6.514;2023-07-20T14:32:25;1.13;;;0.93;;
81627;SDS011;71036;51.102;6.514;2023-07-20T14:34:50;1.10;;;0.60;;
81627;SDS011;71036;51.102;6.514;2023-07-20T14:37:16;2.70;;;0.67;;
81627;SDS011;71036;51.102;6.514;2023-07-20T14:39:41;2.63;;;0.60;;
81627;SDS011;71036;51.102;6.514;2023-07-20T14:42:06;1.83;;;0.90;;
81627;SDS011;71036;51.102;6.514;2023-07-20T14:44:32;2.13;;;0.70;;
81627;SDS011;71036;51.102;6.514;2023-07-20T14:46:58;0.90;;;0.60;;
81627;SDS011;71036;51.102;6.514;2023-07-20T14:49:25;3.30;;;0.80;;
81627;SDS011;71036;51.102;6.514;2023-07-20T14:51:51;2.27;;;0.73;;
81627;SDS011;71036;51.102;6.514;2023-07-20T14:54:18;1.63;;;0.70;;